Terminal Aerodrome Forecast
Issued by NWS Huntsville, AL

Home | Current Version | Previous Version | Text Only | Print | Product List | Glossary On
Versions: 1 2 3 4 5 6 7 8 9 10 11 12 13 14 15 16 17 18 19 20 21 22 23 24 25 26 27 28 29 30
000
FTUS44 KHUN 232123 AAA
TAFHSV
TAF AMD
KHSV 232123Z 2321/2418 32009KT P6SM -RA OVC015
     FM240500 35007KT 5SM BR VCSH OVC007
     FM241000 35007KT 4SM BR OVC006
     FM241700 34009KT P6SM OVC011=

USA.gov is the U.S. government's official web portal to all federal, state and local government web resources and services.